createdAt,value
2023-02-19T00:01:52.223Z,78.72
2023-02-19T00:04:24.626Z,78.70
2023-02-19T00:06:52.770Z,78.98
2023-02-19T00:09:21.804Z,78.91
2023-02-19T00:11:50.093Z,78.88
2023-02-19T00:14:21.713Z,78.79
2023-02-19T00:16:50.118Z,78.80
2023-02-19T00:19:20.952Z,78.50
2023-02-19T00:21:52.691Z,78.74
2023-02-19T00:24:22.059Z,78.84
2023-02-19T00:26:50.526Z,78.70
2023-02-19T00:29:21.189Z,78.76
2023-02-19T00:31:49.442Z,78.70
2023-02-19T00:34:17.762Z,78.79
2023-02-19T00:36:48.222Z,78.56
2023-02-19T00:39:23.414Z,78.70
2023-02-19T00:42:25.035Z,78.69
2023-02-19T00:45:03.391Z,78.87
2023-02-19T00:47:35.183Z,78.95
2023-02-19T00:50:11.112Z,78.75
2023-02-19T00:52:40.410Z,78.52
2023-02-19T00:55:09.480Z,78.71
2023-02-19T00:57:37.653Z,78.73
2023-02-19T01:00:06.891Z,78.84
2023-02-19T01:02:35.022Z,78.83
2023-02-19T01:05:03.197Z,78.87
2023-02-19T01:07:31.308Z,78.61
2023-02-19T01:09:59.487Z,78.59
2023-02-19T01:12:28.358Z,78.82
2023-02-19T01:14:56.474Z,78.85
2023-02-19T01:17:24.995Z,78.98
2023-02-19T01:19:53.383Z,78.63
2023-02-19T01:22:21.488Z,78.53
2023-02-19T01:24:49.652Z,78.84
2023-02-19T01:27:17.805Z,78.44
2023-02-19T01:29:45.904Z,78.65
2023-02-19T01:32:14.103Z,78.66
2023-02-19T01:34:42.280Z,78.51
2023-02-19T01:37:12.222Z,78.63
2023-02-19T01:39:40.303Z,78.75
2023-02-19T01:42:14.586Z,78.61
2023-02-19T01:44:42.723Z,78.59
2023-02-19T01:47:11.756Z,78.13
2023-02-19T01:49:50.778Z,78.67
2023-02-19T01:52:36.052Z,78.78
2023-02-19T01:55:08.884Z,78.87
2023-02-19T01:57:42.907Z,78.79
2023-02-19T02:00:14.258Z,78.55
2023-02-19T02:02:45.297Z,78.47
2023-02-19T02:05:35.237Z,78.70
2023-02-19T02:08:23.118Z,78.71
2023-02-19T02:10:52.495Z,78.74
2023-02-19T02:13:21.251Z,78.94
2023-02-19T02:15:59.306Z,78.64
2023-02-19T02:19:18.278Z,78.99
2023-02-19T02:22:04.508Z,78.69
2023-02-19T02:25:09.712Z,78.80
2023-02-19T02:28:07.175Z,78.73
2023-02-19T02:30:59.400Z,78.77
2023-02-19T02:33:48.225Z,78.70
2023-02-19T02:36:24.788Z,78.70
2023-02-19T02:38:54.667Z,78.35
2023-02-19T02:41:23.574Z,78.62
2023-02-19T02:43:51.609Z,78.80
2023-02-19T02:46:26.852Z,78.67
2023-02-19T02:49:02.864Z,78.65
2023-02-19T02:51:34.755Z,78.71
2023-02-19T02:54:25.854Z,78.59
2023-02-19T02:56:56.370Z,78.43
2023-02-19T02:59:28.678Z,78.60
2023-02-19T03:02:19.321Z,78.86
2023-02-19T03:05:06.464Z,78.60
2023-02-19T03:07:44.083Z,78.45
2023-02-19T03:10:18.733Z,78.54
2023-02-19T03:13:09.758Z,78.63
2023-02-19T03:16:02.578Z,78.53
2023-02-19T03:18:52.410Z,78.74
2023-02-19T03:21:23.113Z,78.56
2023-02-19T03:24:11.327Z,78.59
2023-02-19T03:26:42.677Z,78.49
2023-02-19T03:29:39.285Z,78.65
2023-02-19T03:32:54.913Z,78.51
2023-02-19T03:35:27.383Z,78.52
2023-02-19T03:38:00.418Z,78.37
2023-02-19T03:40:34.640Z,78.53
2023-02-19T03:43:18.061Z,78.68
2023-02-19T03:45:56.304Z,78.76
2023-02-19T03:48:59.443Z,78.82
2023-02-19T03:51:42.882Z,78.73
2023-02-19T03:54:19.299Z,78.86
2023-02-19T03:57:07.465Z,78.53
2023-02-19T04:00:12.486Z,78.56
2023-02-19T04:02:43.877Z,78.55
2023-02-19T04:05:19.085Z,78.32
2023-02-19T04:07:51.581Z,78.49
2023-02-19T04:10:21.218Z,78.68
2023-02-19T04:12:56.810Z,78.29
2023-02-19T04:15:30.150Z,78.41
2023-02-19T04:18:07.492Z,78.58
2023-02-19T04:20:42.693Z,78.59
2023-02-19T04:23:12.380Z,78.53
2023-02-19T04:25:44.177Z,78.56
2023-02-19T04:28:14.569Z,78.56
2023-02-19T04:30:43.851Z,78.48
2023-02-19T04:33:12.111Z,78.27
2023-02-19T04:35:40.190Z,78.46
2023-02-19T04:38:08.266Z,78.34
2023-02-19T04:40:36.317Z,78.27
2023-02-19T04:43:04.349Z,78.37
2023-02-19T04:45:32.483Z,78.28
2023-02-19T04:48:00.561Z,78.39
2023-02-19T04:50:28.766Z,78.41
2023-02-19T04:52:56.873Z,78.37
2023-02-19T04:55:25.119Z,78.30
2023-02-19T04:57:53.182Z,78.40
2023-02-19T05:00:21.508Z,78.47
2023-02-19T05:02:49.569Z,78.59
2023-02-19T05:05:17.724Z,78.48
2023-02-19T05:07:45.934Z,78.44
2023-02-19T05:10:14.026Z,78.48
2023-02-19T05:12:42.369Z,78.52
2023-02-19T05:15:10.433Z,78.54
2023-02-19T05:17:38.490Z,78.60
2023-02-19T05:20:07.001Z,78.51
2023-02-19T05:22:35.030Z,78.41
2023-02-19T05:25:04.621Z,78.46
2023-02-19T05:27:32.710Z,78.34
2023-02-19T05:30:01.157Z,78.48
2023-02-19T05:32:29.240Z,78.63
2023-02-19T05:34:57.445Z,78.59
2023-02-19T05:37:25.471Z,78.56
2023-02-19T05:39:53.559Z,78.55
2023-02-19T05:42:21.621Z,78.44
2023-02-19T05:44:49.627Z,78.39
2023-02-19T05:47:17.725Z,78.48
2023-02-19T05:49:45.952Z,78.73
2023-02-19T05:52:14.710Z,78.54
2023-02-19T05:54:42.741Z,78.45
2023-02-19T05:57:10.819Z,78.53
2023-02-19T05:59:38.860Z,78.57
2023-02-19T06:02:06.913Z,78.74
2023-02-19T06:04:34.978Z,78.78
2023-02-19T06:07:03.079Z,78.89
2023-02-19T06:09:32.438Z,78.45
2023-02-19T06:12:00.627Z,78.77
2023-02-19T06:14:28.665Z,78.78
2023-02-19T06:16:56.814Z,78.51
2023-02-19T06:19:24.975Z,78.95
2023-02-19T06:21:53.203Z,78.86
2023-02-19T06:24:21.313Z,78.83
2023-02-19T06:26:49.437Z,78.80
2023-02-19T06:29:17.705Z,78.60
2023-02-19T06:31:45.816Z,78.48
2023-02-19T06:34:14.114Z,78.70
2023-02-19T06:36:42.174Z,78.59
2023-02-19T06:39:10.612Z,78.45
2023-02-19T06:41:38.978Z,78.55
2023-02-19T06:44:07.062Z,78.75
2023-02-19T06:46:35.802Z,78.70
2023-02-19T06:49:04.949Z,78.48
2023-02-19T06:51:33.376Z,78.70
2023-02-19T06:54:02.594Z,78.70
2023-02-19T06:56:35.582Z,78.43
2023-02-19T06:59:07.549Z,78.78
2023-02-19T07:01:37.204Z,78.96
2023-02-19T07:04:06.318Z,78.60
2023-02-19T07:06:35.587Z,78.79
2023-02-19T07:09:05.474Z,78.85
2023-02-19T07:11:35.186Z,78.94
2023-02-19T07:14:07.848Z,79.07
2023-02-19T07:16:37.244Z,78.91
2023-02-19T07:19:05.332Z,78.94
2023-02-19T07:21:37.866Z,78.94
2023-02-19T07:24:06.782Z,78.92
2023-02-19T07:26:35.865Z,79.18
2023-02-19T07:29:04.498Z,79.13
2023-02-19T07:31:32.668Z,79.18
2023-02-19T07:34:00.758Z,79.28
2023-02-19T07:36:28.919Z,79.02
2023-02-19T07:38:58.484Z,78.81
2023-02-19T07:41:27.718Z,79.11
2023-02-19T07:43:55.828Z,79.14
2023-02-19T07:46:25.037Z,79.26
2023-02-19T07:48:53.072Z,79.39
2023-02-19T07:51:21.648Z,79.20
2023-02-19T07:53:50.804Z,78.86
2023-02-19T07:56:20.742Z,79.00
2023-02-19T07:58:48.896Z,78.89
2023-02-19T08:01:41.902Z,78.59
2023-02-19T08:04:12.164Z,78.86
2023-02-19T08:06:41.079Z,78.86
2023-02-19T08:09:09.719Z,78.78
2023-02-19T08:11:56.535Z,78.73
2023-02-19T08:14:26.535Z,79.10
2023-02-19T08:16:54.965Z,79.07
2023-02-19T08:19:23.528Z,78.72
2023-02-19T08:21:51.887Z,78.94
2023-02-19T08:24:19.978Z,78.75
2023-02-19T08:26:48.093Z,78.43
2023-02-19T08:29:16.316Z,78.74
2023-02-19T08:31:44.611Z,78.90
2023-02-19T08:34:12.867Z,79.07
2023-02-19T08:36:40.997Z,79.20
2023-02-19T08:39:09.030Z,78.90
2023-02-19T08:41:37.194Z,78.83
2023-02-19T08:44:05.420Z,78.71
2023-02-19T08:46:34.510Z,78.50
2023-02-19T08:49:02.894Z,78.58
2023-02-19T08:51:31.595Z,78.03
2023-02-19T08:54:03.855Z,77.44
2023-02-19T08:56:32.147Z,77.52
2023-02-19T08:59:00.179Z,77.85
2023-02-19T09:01:28.326Z,77.34
2023-02-19T09:03:56.579Z,77.39
2023-02-19T09:06:24.670Z,77.36
2023-02-19T09:08:52.779Z,76.92
2023-02-19T09:11:20.949Z,76.22
2023-02-19T09:13:49.072Z,75.95
2023-02-19T09:16:17.212Z,75.92
2023-02-19T09:18:45.996Z,75.90
2023-02-19T09:21:14.211Z,76.09
2023-02-19T09:23:42.495Z,76.16
2023-02-19T09:26:11.662Z,75.81
2023-02-19T09:28:42.060Z,76.10
2023-02-19T09:31:16.711Z,76.21
2023-02-19T09:33:46.533Z,75.02
2023-02-19T09:36:16.473Z,75.45
2023-02-19T09:38:44.650Z,74.37
2023-02-19T09:41:25.079Z,74.55
2023-02-19T09:43:53.332Z,74.16
2023-02-19T09:46:38.106Z,72.87
2023-02-19T09:49:15.698Z,73.75
2023-02-19T09:51:51.428Z,73.12
2023-02-19T09:54:29.180Z,73.54
2023-02-19T09:57:00.375Z,73.99
2023-02-19T09:59:44.807Z,72.82
2023-02-19T10:02:22.227Z,73.18
2023-02-19T10:04:52.343Z,73.46
2023-02-19T10:07:22.849Z,72.96
2023-02-19T10:10:22.820Z,71.95
2023-02-19T10:12:52.460Z,70.79
2023-02-19T10:15:32.405Z,70.84
2023-02-19T10:18:00.505Z,70.95
2023-02-19T10:20:28.698Z,71.48
2023-02-19T10:23:04.292Z,71.79
2023-02-19T10:25:34.376Z,70.97
2023-02-19T10:28:03.631Z,70.35
2023-02-19T10:30:35.852Z,70.96
2023-02-19T10:33:11.531Z,71.30
2023-02-19T10:35:52.134Z,70.78
2023-02-19T10:38:23.821Z,70.88
2023-02-19T10:41:12.732Z,69.62
2023-02-19T10:43:45.835Z,70.08
2023-02-19T10:46:30.198Z,69.37
2023-02-19T10:49:06.097Z,68.77
2023-02-19T10:51:40.577Z,68.32
2023-02-19T10:54:25.648Z,68.28
2023-02-19T10:56:54.683Z,68.11
2023-02-19T10:59:27.720Z,69.12
2023-02-19T11:02:01.718Z,68.23
2023-02-19T11:04:35.344Z,68.12
2023-02-19T11:07:11.688Z,67.88
2023-02-19T11:09:43.398Z,68.53
2023-02-19T11:12:14.231Z,69.34
2023-02-19T11:14:45.685Z,69.79
2023-02-19T11:17:30.700Z,70.30
2023-02-19T11:20:05.429Z,69.57
2023-02-19T11:22:33.691Z,69.90
2023-02-19T11:25:07.056Z,69.49
2023-02-19T11:27:35.378Z,67.38
2023-02-19T11:30:35.248Z,68.44
2023-02-19T11:33:20.107Z,67.62
2023-02-19T11:36:11.797Z,67.93
2023-02-19T11:38:40.006Z,68.34
2023-02-19T11:41:31.251Z,68.91
2023-02-19T11:44:07.831Z,69.13
2023-02-19T11:46:41.667Z,68.59
2023-02-19T11:49:41.063Z,67.86
2023-02-19T11:52:33.798Z,67.59
2023-02-19T11:55:17.165Z,65.62
2023-02-19T11:58:11.879Z,66.73
2023-02-19T12:01:14.473Z,66.36
2023-02-19T12:04:00.537Z,66.75
2023-02-19T12:06:28.650Z,65.58
2023-02-19T12:09:23.140Z,64.63
2023-02-19T12:12:00.403Z,65.09
2023-02-19T12:14:53.480Z,65.86
2023-02-19T12:17:36.272Z,64.78
2023-02-19T12:21:21.234Z,64.87
2023-02-19T12:24:23.048Z,65.44
2023-02-19T12:27:08.886Z,64.72
2023-02-19T12:29:50.641Z,64.31
2023-02-19T12:32:40.691Z,64.07
2023-02-19T12:35:17.095Z,64.03
2023-02-19T12:38:12.196Z,65.12
2023-02-19T12:40:55.552Z,65.74
2023-02-19T12:43:24.687Z,65.47
2023-02-19T12:46:02.025Z,65.10
2023-02-19T12:48:41.426Z,66.22
2023-02-19T12:51:26.736Z,66.18
2023-02-19T12:54:01.326Z,65.48
2023-02-19T12:56:32.128Z,64.36
2023-02-19T12:59:35.636Z,65.53
2023-02-19T13:02:18.302Z,65.73
2023-02-19T13:05:19.607Z,65.65
2023-02-19T13:08:07.934Z,64.52
2023-02-19T13:11:00.202Z,63.39
2023-02-19T13:13:38.787Z,64.18
2023-02-19T13:16:15.103Z,64.07
2023-02-19T13:18:52.112Z,64.80
2023-02-19T13:21:43.902Z,63.38
2023-02-19T13:24:17.625Z,64.54
2023-02-19T13:26:49.401Z,65.55
2023-02-19T13:29:44.357Z,65.46
2023-02-19T13:32:31.427Z,66.01
2023-02-19T13:35:27.408Z,65.38
2023-02-19T13:38:08.850Z,66.22
2023-02-19T13:40:42.397Z,66.56
2023-02-19T13:43:28.581Z,66.50
2023-02-19T13:46:00.568Z,66.41
2023-02-19T13:48:31.952Z,66.62
2023-02-19T13:51:24.539Z,65.99
2023-02-19T13:54:00.473Z,66.30
2023-02-19T13:57:12.515Z,66.63
2023-02-19T13:59:41.033Z,67.02
2023-02-19T14:02:11.545Z,66.64
2023-02-19T14:04:54.638Z,66.65
2023-02-19T14:07:49.534Z,65.37
2023-02-19T14:10:57.727Z,64.89
2023-02-19T14:13:47.916Z,65.86
2023-02-19T14:16:39.114Z,66.30
2023-02-19T14:19:41.796Z,66.91
2023-02-19T14:22:55.577Z,67.27
2023-02-19T14:25:53.450Z,67.48
2023-02-19T14:28:36.360Z,67.35
2023-02-19T14:31:32.618Z,67.16
2023-02-19T14:34:22.932Z,66.60
2023-02-19T14:36:59.087Z,66.41
2023-02-19T14:39:35.348Z,64.04
2023-02-19T14:42:18.479Z,64.24
2023-02-19T14:44:52.162Z,63.67
2023-02-19T14:47:23.553Z,63.59
2023-02-19T14:49:57.974Z,63.78
2023-02-19T14:52:43.808Z,63.69
2023-02-19T14:55:26.041Z,63.72
2023-02-19T14:58:05.936Z,64.20
2023-02-19T15:00:37.985Z,64.26
2023-02-19T15:03:23.451Z,64.16
2023-02-19T15:06:00.203Z,64.90
2023-02-19T15:08:36.125Z,65.12
2023-02-19T15:11:10.767Z,66.19
2023-02-19T15:13:45.782Z,66.40
2023-02-19T15:16:23.671Z,66.72
2023-02-19T15:18:55.610Z,66.97
2023-02-19T15:21:32.776Z,66.86
2023-02-19T15:24:03.937Z,67.51
2023-02-19T15:26:41.147Z,67.43
2023-02-19T15:29:18.722Z,67.39
2023-02-19T15:31:59.042Z,67.18
2023-02-19T15:34:32.585Z,67.51
2023-02-19T15:37:06.565Z,67.67
2023-02-19T15:39:48.462Z,67.66
2023-02-19T15:42:28.567Z,66.84
2023-02-19T15:44:57.342Z,67.25
2023-02-19T15:47:37.467Z,67.10
2023-02-19T15:50:12.125Z,67.28
2023-02-19T15:53:04.927Z,67.25
2023-02-19T15:55:45.722Z,67.69
2023-02-19T15:58:20.055Z,67.23
2023-02-19T16:00:57.246Z,67.41
2023-02-19T16:03:27.531Z,67.30
2023-02-19T16:06:17.086Z,67.67
2023-02-19T16:09:06.617Z,67.10
2023-02-19T16:11:35.116Z,67.26
2023-02-19T16:14:37.275Z,66.97
2023-02-19T16:17:10.957Z,67.53
2023-02-19T16:20:00.898Z,67.44
2023-02-19T16:22:32.064Z,67.63
2023-02-19T16:25:06.054Z,67.90
2023-02-19T16:27:38.753Z,67.95
2023-02-19T16:30:28.796Z,68.30
2023-02-19T16:33:22.091Z,68.26
2023-02-19T16:35:52.635Z,68.59
2023-02-19T16:38:21.174Z,68.45
2023-02-19T16:40:49.366Z,68.53
2023-02-19T16:43:38.449Z,68.47
2023-02-19T16:46:10.269Z,68.95
2023-02-19T16:48:38.749Z,68.96
2023-02-19T16:51:08.276Z,68.97
2023-02-19T16:53:36.436Z,68.89
2023-02-19T16:56:04.816Z,69.19
2023-02-19T16:58:32.942Z,69.15
2023-02-19T17:01:01.982Z,69.05
2023-02-19T17:03:30.664Z,69.40
2023-02-19T17:05:58.981Z,69.22
2023-02-19T17:08:34.589Z,69.67
2023-02-19T17:11:11.367Z,69.55
2023-02-19T17:13:40.183Z,69.57
2023-02-19T17:16:11.304Z,69.76
2023-02-19T17:18:39.526Z,69.71
2023-02-19T17:21:17.528Z,69.78
2023-02-19T17:23:46.156Z,69.90
2023-02-19T17:26:16.881Z,69.91
2023-02-19T17:28:45.258Z,69.94
2023-02-19T17:31:14.718Z,69.90
2023-02-19T17:33:43.904Z,69.92
2023-02-19T17:36:21.701Z,69.98
2023-02-19T17:38:49.802Z,70.09
2023-02-19T17:41:18.136Z,70.13
2023-02-19T17:43:47.666Z,70.18
2023-02-19T17:46:17.376Z,70.16
2023-02-19T17:48:45.958Z,70.14
2023-02-19T17:51:15.028Z,70.15
2023-02-19T17:53:43.622Z,70.22
2023-02-19T17:56:16.866Z,70.29
2023-02-19T17:58:45.871Z,70.39
2023-02-19T18:01:14.477Z,70.46
2023-02-19T18:03:43.046Z,70.61
2023-02-19T18:06:11.425Z,70.56
2023-02-19T18:08:39.520Z,70.77
2023-02-19T18:11:08.243Z,70.72
2023-02-19T18:13:36.470Z,70.72
2023-02-19T18:16:06.029Z,70.64
2023-02-19T18:18:34.199Z,70.70
2023-02-19T18:21:02.817Z,70.84
2023-02-19T18:23:30.892Z,70.65
2023-02-19T18:26:00.561Z,70.78
2023-02-19T18:28:29.003Z,70.79
2023-02-19T18:30:57.483Z,70.96
2023-02-19T18:33:25.697Z,71.01
2023-02-19T18:35:54.148Z,70.80
2023-02-19T18:38:22.551Z,70.98
2023-02-19T18:40:50.622Z,71.02
2023-02-19T18:43:19.152Z,70.98
2023-02-19T18:45:48.869Z,71.08
2023-02-19T18:48:17.543Z,71.05
2023-02-19T18:50:45.915Z,71.21
2023-02-19T18:53:14.407Z,71.07
2023-02-19T18:55:42.711Z,71.18
2023-02-19T18:58:10.976Z,71.09
2023-02-19T19:00:39.915Z,71.10
2023-02-19T19:03:54.655Z,71.03
2023-02-19T19:06:25.985Z,71.12
2023-02-19T19:08:54.324Z,71.11
2023-02-19T19:11:22.861Z,71.05
2023-02-19T19:13:51.433Z,71.11
2023-02-19T19:16:24.332Z,71.04
2023-02-19T19:18:53.776Z,71.08
2023-02-19T19:21:23.269Z,71.04
2023-02-19T19:23:51.820Z,71.09
2023-02-19T19:26:20.683Z,71.11
2023-02-19T19:28:48.813Z,70.89
2023-02-19T19:31:21.340Z,70.87
2023-02-19T19:33:49.576Z,70.89
2023-02-19T19:36:23.212Z,70.79
2023-02-19T19:38:52.213Z,70.97
2023-02-19T19:41:21.115Z,70.94
2023-02-19T19:43:49.234Z,71.11
2023-02-19T19:46:20.061Z,71.04
2023-02-19T19:48:50.281Z,71.01
2023-02-19T19:51:19.062Z,70.89
2023-02-19T19:53:49.149Z,70.82
2023-02-19T19:56:17.661Z,70.91
2023-02-19T19:58:47.728Z,70.98
2023-02-19T20:01:21.070Z,70.94
2023-02-19T20:03:51.217Z,70.93
2023-02-19T20:06:26.937Z,70.97
2023-02-19T20:08:55.596Z,70.99
2023-02-19T20:11:24.095Z,71.02
2023-02-19T20:13:52.188Z,71.05
2023-02-19T20:16:25.711Z,71.09
2023-02-19T20:18:53.997Z,71.14
2023-02-19T20:21:22.773Z,71.21
2023-02-19T20:23:51.080Z,71.07
2023-02-19T20:26:24.608Z,71.11
2023-02-19T20:28:53.656Z,71.13
2023-02-19T20:31:22.786Z,71.20
2023-02-19T20:33:51.345Z,71.26
2023-02-19T20:36:22.623Z,71.26
2023-02-19T20:38:51.143Z,71.19
2023-02-19T20:41:19.303Z,71.12
2023-02-19T20:43:47.619Z,71.24
2023-02-19T20:46:15.963Z,71.22
2023-02-19T20:48:44.807Z,71.29
2023-02-19T20:51:13.093Z,71.31
2023-02-19T20:53:41.939Z,71.37
2023-02-19T20:56:11.665Z,71.32
2023-02-19T20:58:43.496Z,71.35
2023-02-19T21:01:12.286Z,71.19
2023-02-19T21:03:40.687Z,71.32
2023-02-19T21:06:08.825Z,71.39
2023-02-19T21:08:37.054Z,71.34
2023-02-19T21:11:05.378Z,71.27
2023-02-19T21:13:35.177Z,71.34
2023-02-19T21:16:03.815Z,71.28
2023-02-19T21:18:31.935Z,71.39
2023-02-19T21:21:00.057Z,71.46
2023-02-19T21:23:28.895Z,71.41
2023-02-19T21:25:57.269Z,71.40
2023-02-19T21:28:25.274Z,71.31
2023-02-19T21:30:53.584Z,71.42
2023-02-19T21:33:21.678Z,71.34
2023-02-19T21:35:49.679Z,71.43
2023-02-19T21:38:18.341Z,71.42
2023-02-19T21:40:46.405Z,71.48
2023-02-19T21:43:14.564Z,71.56
2023-02-19T21:45:43.207Z,71.68
2023-02-19T21:48:11.353Z,71.48
2023-02-19T21:50:40.461Z,71.55
2023-02-19T21:53:08.476Z,71.61
2023-02-19T21:55:38.548Z,71.64
2023-02-19T21:58:07.764Z,71.52
2023-02-19T22:00:36.154Z,71.53
2023-02-19T22:03:04.313Z,71.65
2023-02-19T22:05:33.152Z,71.56
2023-02-19T22:08:01.859Z,71.65
2023-02-19T22:10:30.128Z,71.47
2023-02-19T22:12:58.337Z,71.68
2023-02-19T22:15:26.464Z,71.51
2023-02-19T22:17:54.681Z,71.65
2023-02-19T22:20:22.817Z,71.63
2023-02-19T22:22:50.944Z,71.64
2023-02-19T22:25:19.238Z,71.58
2023-02-19T22:27:49.001Z,71.48
2023-02-19T22:30:17.451Z,71.49
2023-02-19T22:32:45.700Z,71.41
2023-02-19T22:35:15.770Z,71.40
2023-02-19T22:37:44.113Z,71.53
2023-02-19T22:40:12.798Z,71.56
2023-02-19T22:42:40.951Z,71.54
2023-02-19T22:45:12.012Z,71.66
2023-02-19T22:47:40.482Z,71.61
2023-02-19T22:50:09.172Z,71.62
2023-02-19T22:52:37.339Z,71.67
2023-02-19T22:55:05.776Z,71.71
2023-02-19T22:57:34.145Z,72.05
2023-02-19T23:00:04.686Z,71.69
2023-02-19T23:02:33.025Z,71.62
2023-02-19T23:05:01.252Z,71.75
2023-02-19T23:07:29.696Z,71.71
2023-02-19T23:10:00.115Z,71.55
2023-02-19T23:12:32.308Z,71.89
2023-02-19T23:15:01.546Z,71.86
2023-02-19T23:17:30.584Z,71.83
2023-02-19T23:19:58.857Z,71.95
2023-02-19T23:22:28.342Z,71.80
2023-02-19T23:24:56.563Z,71.97
2023-02-19T23:27:26.886Z,72.00
2023-02-19T23:29:56.539Z,72.02
2023-02-19T23:32:24.880Z,72.05
2023-02-19T23:34:53.035Z,72.08
2023-02-19T23:37:21.123Z,72.17
2023-02-19T23:39:49.312Z,72.21
2023-02-19T23:42:17.476Z,72.29
2023-02-19T23:44:49.117Z,72.33
2023-02-19T23:47:18.353Z,72.33
2023-02-19T23:49:46.490Z,72.38
2023-02-19T23:52:14.639Z,72.33
2023-02-19T23:54:42.788Z,72.49
2023-02-19T23:57:10.939Z,72.56
2023-02-19T23:59:39.073Z,72.51
